createdAt,value
2023-07-04T00:00:35.045Z,100245.31
2023-07-04T00:03:02.838Z,100243.63
2023-07-04T00:05:30.633Z,100250.03
2023-07-04T00:07:58.673Z,100246.16
2023-07-04T00:10:26.886Z,100246.78
2023-07-04T00:12:54.684Z,100250.13
2023-07-04T00:15:22.375Z,100264.00
2023-07-04T00:17:51.470Z,100244.09
2023-07-04T00:20:20.106Z,100257.59
2023-07-04T00:22:48.339Z,100263.41
2023-07-04T00:25:16.216Z,100261.25
2023-07-04T00:27:43.935Z,100266.19
2023-07-04T00:30:13.743Z,100263.91
2023-07-04T00:32:41.492Z,100246.06
2023-07-04T00:35:10.835Z,100255.69
2023-07-04T00:37:38.565Z,100264.13
2023-07-04T00:40:10.938Z,100259.31
2023-07-04T00:42:38.662Z,100258.00
2023-07-04T00:45:10.969Z,100254.97
2023-07-04T00:47:47.733Z,100256.78
2023-07-04T00:50:20.256Z,100256.66
2023-07-04T00:52:48.068Z,100242.41
2023-07-04T00:55:15.948Z,100262.69
2023-07-04T00:57:46.404Z,100258.34
2023-07-04T01:00:20.468Z,100264.38
2023-07-04T01:02:49.917Z,100258.59
2023-07-04T01:05:21.756Z,100265.22
2023-07-04T01:07:52.628Z,100257.38
2023-07-04T01:10:25.040Z,100248.41
2023-07-04T01:12:53.326Z,100262.88
2023-07-04T01:15:24.556Z,100255.78
2023-07-04T01:17:52.431Z,100271.69
2023-07-04T01:20:21.943Z,100271.44
2023-07-04T01:22:58.932Z,100267.72
2023-07-04T01:25:32.951Z,100260.13
2023-07-04T01:28:03.964Z,100256.59
2023-07-04T01:30:34.897Z,100265.03
2023-07-04T01:33:02.818Z,100263.81
2023-07-04T01:35:30.778Z,100264.91
2023-07-04T01:38:00.384Z,100269.09
2023-07-04T01:40:28.195Z,100263.56
2023-07-04T01:42:55.899Z,100271.53
2023-07-04T01:45:25.045Z,100278.81
2023-07-04T01:47:54.134Z,100290.25
2023-07-04T01:50:22.253Z,100294.88
2023-07-04T01:52:49.980Z,100285.75
2023-07-04T01:55:17.842Z,100290.09
2023-07-04T01:57:45.557Z,100295.41
2023-07-04T02:00:14.609Z,100291.28
2023-07-04T02:02:44.575Z,100292.50
2023-07-04T02:05:12.579Z,100283.38
2023-07-04T02:07:40.354Z,100287.66
2023-07-04T02:10:09.389Z,100294.94
2023-07-04T02:12:37.134Z,100279.63
2023-07-04T02:15:05.678Z,100287.22
2023-07-04T02:17:33.453Z,100278.03
2023-07-04T02:20:02.548Z,100280.72
2023-07-04T02:22:30.306Z,100285.78
2023-07-04T02:24:58.059Z,100281.19
2023-07-04T02:27:25.812Z,100294.22
2023-07-04T02:29:53.524Z,100286.75
2023-07-04T02:32:21.352Z,100284.81
2023-07-04T02:34:49.122Z,100287.00
2023-07-04T02:37:18.352Z,100285.03
2023-07-04T02:39:46.279Z,100290.34
2023-07-04T02:42:14.245Z,100288.44
2023-07-04T02:44:42.030Z,100290.63
2023-07-04T02:47:10.066Z,100284.59
2023-07-04T02:49:39.292Z,100273.53
2023-07-04T02:52:07.665Z,100276.38
2023-07-04T02:54:36.835Z,100278.91
2023-07-04T02:57:05.096Z,100268.53
2023-07-04T02:59:32.801Z,100280.13
2023-07-04T03:02:00.517Z,100279.03
2023-07-04T03:04:28.411Z,100268.56
2023-07-04T03:06:56.152Z,100280.97
2023-07-04T03:09:25.625Z,100280.53
2023-07-04T03:11:55.918Z,100282.56
2023-07-04T03:14:23.886Z,100283.44
2023-07-04T03:16:51.632Z,100277.28
2023-07-04T03:19:20.921Z,100274.50
2023-07-04T03:21:48.634Z,100268.84
2023-07-04T03:24:16.415Z,100281.50
2023-07-04T03:26:46.312Z,100278.13
2023-07-04T03:29:15.426Z,100280.78
2023-07-04T03:31:43.506Z,100288.72
2023-07-04T03:34:11.299Z,100282.66
2023-07-04T03:36:39.060Z,100285.19
2023-07-04T03:39:07.049Z,100277.47
2023-07-04T03:41:34.917Z,100286.16
2023-07-04T03:44:02.604Z,100278.19
2023-07-04T03:46:31.683Z,100283.38
2023-07-04T03:48:59.442Z,100288.44
2023-07-04T03:51:27.166Z,100294.47
2023-07-04T03:53:54.917Z,100300.84
2023-07-04T03:56:22.645Z,100299.63
2023-07-04T03:58:50.328Z,100297.84
2023-07-04T04:01:18.074Z,100304.56
2023-07-04T04:03:47.408Z,100319.22
2023-07-04T04:06:15.410Z,100317.66
2023-07-04T04:08:43.162Z,100313.19
2023-07-04T04:11:10.898Z,100321.56
2023-07-04T04:13:38.656Z,100312.34
2023-07-04T04:16:06.809Z,100312.38
2023-07-04T04:18:34.516Z,100308.25
2023-07-04T04:21:03.616Z,100303.06
2023-07-04T04:23:31.347Z,100301.03
2023-07-04T04:25:59.087Z,100314.03
2023-07-04T04:28:27.746Z,100322.75
2023-07-04T04:30:55.991Z,100325.16
2023-07-04T04:33:24.890Z,100323.72
2023-07-04T04:35:52.665Z,100335.91
2023-07-04T04:38:21.797Z,100339.50
2023-07-04T04:40:49.670Z,100335.47
2023-07-04T04:43:17.418Z,100332.09
2023-07-04T04:45:46.128Z,100340.94
2023-07-04T04:48:30.178Z,100339.59
2023-07-04T04:50:58.864Z,100348.06
2023-07-04T04:53:28.124Z,100347.38
2023-07-04T04:55:55.839Z,100342.34
2023-07-04T04:58:23.587Z,100340.59
2023-07-04T05:00:51.418Z,100322.22
2023-07-04T05:03:19.371Z,100325.97
2023-07-04T05:05:47.152Z,100333.63
2023-07-04T05:08:15.135Z,100329.66
2023-07-04T05:10:44.207Z,100341.22
2023-07-04T05:13:11.958Z,100337.25
2023-07-04T05:15:39.700Z,100355.47
2023-07-04T05:18:07.504Z,100359.63
2023-07-04T05:20:36.089Z,100361.47
2023-07-04T05:23:03.856Z,100348.81
2023-07-04T05:25:31.587Z,100349.38
2023-07-04T05:28:00.686Z,100358.72
2023-07-04T05:30:28.416Z,100354.25
2023-07-04T05:32:56.171Z,100345.88
2023-07-04T05:35:23.928Z,100352.22
2023-07-04T05:37:51.622Z,100349.16
2023-07-04T05:40:19.329Z,100354.06
2023-07-04T05:42:47.103Z,100361.97
2023-07-04T05:45:16.403Z,100361.13
2023-07-04T05:47:44.214Z,100368.31
2023-07-04T05:50:12.130Z,100380.13
2023-07-04T05:52:39.880Z,100366.94
2023-07-04T05:55:08.803Z,100372.25
2023-07-04T05:57:36.544Z,100378.19
2023-07-04T06:00:06.181Z,100394.19
2023-07-04T06:02:35.312Z,100371.66
2023-07-04T06:05:03.263Z,100366.97
2023-07-04T06:07:31.690Z,100370.19
2023-07-04T06:10:00.680Z,100382.38
2023-07-04T06:12:30.459Z,100390.91
2023-07-04T06:14:58.198Z,100390.91
2023-07-04T06:17:25.960Z,100382.75
2023-07-04T06:19:55.152Z,100395.69
2023-07-04T06:22:22.869Z,100400.59
2023-07-04T06:24:52.763Z,100398.47
2023-07-04T06:27:20.484Z,100404.56
2023-07-04T06:29:48.626Z,100410.22
2023-07-04T06:32:16.370Z,100409.72
2023-07-04T06:34:44.275Z,100409.97
2023-07-04T06:37:13.375Z,100418.72
2023-07-04T06:39:41.067Z,100405.34
2023-07-04T06:42:08.862Z,100406.53
2023-07-04T06:44:36.569Z,100403.69
2023-07-04T06:47:04.475Z,100406.38
2023-07-04T06:49:32.242Z,100416.19
2023-07-04T06:51:59.982Z,100408.84
2023-07-04T06:54:29.049Z,100404.38
2023-07-04T06:56:56.840Z,100406.66
2023-07-04T06:59:25.382Z,100424.03
2023-07-04T07:01:53.152Z,100433.53
2023-07-04T07:04:20.852Z,100436.84
2023-07-04T07:06:49.378Z,100452.81
2023-07-04T07:09:17.035Z,100449.94
2023-07-04T07:11:46.144Z,100429.50
2023-07-04T07:14:13.958Z,100431.06
2023-07-04T07:16:41.756Z,100445.75
2023-07-04T07:19:09.570Z,100437.88
2023-07-04T07:21:38.047Z,100417.31
2023-07-04T07:24:06.242Z,100415.59
2023-07-04T07:26:34.565Z,100422.97
2023-07-04T07:29:03.631Z,100432.69
2023-07-04T07:31:34.541Z,100447.00
2023-07-04T07:34:03.325Z,100420.19
2023-07-04T07:36:32.943Z,100434.50
2023-07-04T07:39:03.722Z,100430.63
2023-07-04T07:41:33.716Z,100430.09
2023-07-04T07:44:02.801Z,100436.41
2023-07-04T07:46:30.567Z,100430.50
2023-07-04T07:48:58.576Z,100427.03
2023-07-04T07:51:26.798Z,100444.78
2023-07-04T07:53:56.348Z,100437.94
2023-07-04T07:56:25.802Z,100441.50
2023-07-04T07:58:53.923Z,100434.41
2023-07-04T08:01:24.524Z,100441.59
2023-07-04T08:03:52.525Z,100448.63
2023-07-04T08:06:25.288Z,100454.69
2023-07-04T08:08:53.092Z,100433.28
2023-07-04T08:11:21.337Z,100439.63
2023-07-04T08:13:49.673Z,100456.47
2023-07-04T08:16:20.061Z,100462.28
2023-07-04T08:18:49.414Z,100432.91
2023-07-04T08:21:17.798Z,100441.63
2023-07-04T08:23:46.221Z,100420.53
2023-07-04T08:26:17.621Z,100445.06
2023-07-04T08:28:46.714Z,100454.09
2023-07-04T08:31:15.117Z,100462.56
2023-07-04T08:33:42.866Z,100426.88
2023-07-04T08:36:12.412Z,100438.28
2023-07-04T08:38:40.323Z,100447.81
2023-07-04T08:41:18.741Z,100461.56
2023-07-04T08:43:48.072Z,100448.34
2023-07-04T08:46:16.623Z,100451.31
2023-07-04T08:48:44.901Z,100448.41
2023-07-04T08:51:20.338Z,100455.00
2023-07-04T08:53:51.594Z,100448.63
2023-07-04T08:56:26.958Z,100470.03
2023-07-04T08:59:01.180Z,100437.69
2023-07-04T09:01:36.261Z,100413.56
2023-07-04T09:04:06.764Z,100444.09
2023-07-04T09:06:41.525Z,100440.63
2023-07-04T09:09:14.734Z,100444.59
2023-07-04T09:11:43.436Z,100449.03
2023-07-04T09:14:17.869Z,100459.03
2023-07-04T09:16:49.965Z,100456.06
2023-07-04T09:19:20.189Z,100452.84
2023-07-04T09:21:49.597Z,100453.03
2023-07-04T09:24:17.419Z,100458.28
2023-07-04T09:26:47.393Z,100473.81
2023-07-04T09:29:16.430Z,100470.06
2023-07-04T09:31:46.349Z,100493.63
2023-07-04T09:34:17.630Z,100508.09
2023-07-04T09:36:45.667Z,100526.16
2023-07-04T09:39:14.920Z,100522.59
2023-07-04T09:41:55.401Z,100507.31
2023-07-04T09:44:29.258Z,100503.63
2023-07-04T09:46:59.078Z,100520.25
2023-07-04T09:49:29.083Z,100528.44
2023-07-04T09:52:00.531Z,100533.69
2023-07-04T09:54:30.291Z,100539.41
2023-07-04T09:56:58.162Z,100550.03
2023-07-04T09:59:28.008Z,100544.84
2023-07-04T10:02:01.187Z,100546.28
2023-07-04T10:04:34.922Z,100558.38
2023-07-04T10:07:04.398Z,100558.41
2023-07-04T10:09:34.951Z,100550.81
2023-07-04T10:12:11.216Z,100556.47
2023-07-04T10:14:47.015Z,100552.44
2023-07-04T10:17:17.881Z,100551.44
2023-07-04T10:19:47.708Z,100550.53
2023-07-04T10:22:24.959Z,100540.97
2023-07-04T10:24:54.054Z,100528.31
2023-07-04T10:27:22.386Z,100519.19
2023-07-04T10:29:55.336Z,100539.84
2023-07-04T10:32:24.109Z,100529.16
2023-07-04T10:34:51.994Z,100545.94
2023-07-04T10:37:23.605Z,100550.88
2023-07-04T10:39:56.513Z,100546.06
2023-07-04T10:42:28.504Z,100537.84
2023-07-04T10:44:57.948Z,100545.56
2023-07-04T10:47:28.892Z,100542.03
2023-07-04T10:50:00.457Z,100573.13
2023-07-04T10:52:32.684Z,100560.34
2023-07-04T10:55:02.659Z,100564.47
2023-07-04T10:57:36.100Z,100562.28
2023-07-04T11:00:08.212Z,100569.88
2023-07-04T11:02:40.439Z,100571.09
2023-07-04T11:05:12.596Z,100580.88
2023-07-04T11:07:41.671Z,100579.59
2023-07-04T11:10:13.341Z,100581.41
2023-07-04T11:12:42.487Z,100578.41
2023-07-04T11:15:21.576Z,100582.97
2023-07-04T11:17:50.135Z,100592.75
2023-07-04T11:20:20.297Z,100592.66
2023-07-04T11:23:04.696Z,100588.88
2023-07-04T11:25:38.073Z,100584.22
2023-07-04T11:28:17.532Z,100575.88
2023-07-04T11:30:48.920Z,100579.72
2023-07-04T11:33:42.594Z,100603.03
2023-07-04T11:36:18.562Z,100592.56
2023-07-04T11:38:52.281Z,100611.81
2023-07-04T11:41:28.007Z,100615.31
2023-07-04T11:43:56.308Z,100608.28
2023-07-04T11:46:26.200Z,100596.19
2023-07-04T11:48:55.390Z,100598.53
2023-07-04T11:51:25.465Z,100595.56
2023-07-04T11:53:57.135Z,100611.97
2023-07-04T11:56:42.309Z,100593.13
2023-07-04T11:59:39.806Z,100596.41
2023-07-04T12:02:15.557Z,100603.13
2023-07-04T12:04:48.373Z,100594.28
2023-07-04T12:07:21.067Z,100596.34
2023-07-04T12:09:51.597Z,100596.53
2023-07-04T12:12:23.480Z,100604.53
2023-07-04T12:15:00.054Z,100586.09
2023-07-04T12:17:27.872Z,100588.88
2023-07-04T12:19:57.230Z,100595.66
2023-07-04T12:22:25.982Z,100601.56
2023-07-04T12:24:53.984Z,100609.56
2023-07-04T12:27:28.885Z,100599.66
2023-07-04T12:32:27.602Z,100584.69
2023-07-04T12:37:28.727Z,100589.28
2023-07-04T12:39:56.679Z,100585.28
2023-07-04T12:42:30.603Z,100577.38
2023-07-04T12:44:58.419Z,100585.78
2023-07-04T12:47:28.518Z,100588.63
2023-07-04T12:49:59.493Z,100611.09
2023-07-04T12:52:31.324Z,100589.44
2023-07-04T12:54:59.647Z,100580.75
2023-07-04T12:57:29.633Z,100579.84
2023-07-04T13:00:10.540Z,100585.31
2023-07-04T13:02:38.728Z,100588.13
2023-07-04T13:05:07.832Z,100578.22
2023-07-04T13:07:35.828Z,100582.44
2023-07-04T13:10:04.227Z,100568.69
2023-07-04T13:12:36.603Z,100579.91
2023-07-04T13:15:13.298Z,100580.50
2023-07-04T13:17:53.842Z,100581.94
2023-07-04T13:20:22.719Z,100577.72
2023-07-04T13:25:41.097Z,100588.69
2023-07-04T13:32:58.860Z,100576.44
2023-07-04T13:33:34.901Z,100571.41
2023-07-04T13:36:12.127Z,100559.69
2023-07-04T13:41:12.039Z,100555.94
2023-07-04T13:46:13.189Z,100555.34
2023-07-04T13:48:40.909Z,100585.34
2023-07-04T13:51:09.294Z,100571.75
2023-07-04T13:53:37.005Z,100565.53
2023-07-04T13:56:05.330Z,100554.28
2023-07-04T13:58:32.995Z,100550.69
2023-07-04T14:06:07.070Z,100531.72
2023-07-04T14:08:37.099Z,100543.94
2023-07-04T14:11:06.533Z,100546.06
2023-07-04T14:13:34.652Z,100540.50
2023-07-04T14:21:08.375Z,100548.84
2023-07-04T14:23:36.424Z,100544.50
2023-07-04T14:26:04.297Z,100550.44
2023-07-04T14:28:32.014Z,100551.91
2023-07-04T14:30:59.922Z,100527.56
2023-07-04T14:33:29.164Z,100529.22
2023-07-04T14:35:56.958Z,100549.03
2023-07-04T14:38:24.903Z,100534.28
2023-07-04T14:43:23.255Z,100540.66
2023-07-04T14:45:58.084Z,100543.72
2023-07-04T14:48:25.850Z,100535.50
2023-07-04T14:51:03.124Z,100528.69
2023-07-04T14:53:30.898Z,100528.69
2023-07-04T14:56:00.074Z,100538.25
2023-07-04T14:58:28.089Z,100550.78
2023-07-04T15:00:55.898Z,100549.91
2023-07-04T15:03:23.899Z,100538.13
2023-07-04T15:05:51.920Z,100537.50
2023-07-04T15:08:21.307Z,100541.53
2023-07-04T15:10:49.062Z,100542.88
2023-07-04T15:13:16.755Z,100536.47
2023-07-04T15:15:44.497Z,100532.44
2023-07-04T15:18:12.199Z,100531.25
2023-07-04T15:20:39.948Z,100516.66
2023-07-04T15:23:07.733Z,100533.75
2023-07-04T15:25:36.898Z,100534.97
2023-07-04T15:28:05.411Z,100542.91
2023-07-04T15:30:33.172Z,100522.69
2023-07-04T15:33:01.001Z,100528.75
2023-07-04T15:35:28.762Z,100525.06
2023-07-04T15:37:56.514Z,100519.69
2023-07-04T15:40:24.252Z,100516.31
2023-07-04T15:42:53.912Z,100531.66
2023-07-04T15:45:22.269Z,100538.31
2023-07-04T15:47:50.710Z,100521.06
2023-07-04T15:50:18.538Z,100520.84
2023-07-04T15:52:46.300Z,100517.66
2023-07-04T15:55:14.143Z,100501.56
2023-07-04T15:57:42.153Z,100508.94
2023-07-04T16:00:12.579Z,100503.91
2023-07-04T16:02:41.510Z,100495.16
2023-07-04T16:05:10.298Z,100499.75
2023-07-04T16:07:38.048Z,100507.59
2023-07-04T16:10:06.142Z,100511.78
2023-07-04T16:12:33.924Z,100495.84
2023-07-04T16:15:01.688Z,100508.47
2023-07-04T16:17:31.044Z,100493.16
2023-07-04T16:19:58.956Z,100491.81
2023-07-04T16:22:26.686Z,100490.81
2023-07-04T16:24:54.396Z,100496.88
2023-07-04T16:27:22.113Z,100476.69
2023-07-04T16:29:49.863Z,100474.00
2023-07-04T16:32:17.624Z,100469.63
2023-07-04T16:34:46.962Z,100462.84
2023-07-04T16:37:14.673Z,100471.81
2023-07-04T16:39:42.843Z,100482.06
2023-07-04T16:42:10.657Z,100483.41
2023-07-04T16:44:38.402Z,100469.28
2023-07-04T16:47:06.548Z,100477.06
2023-07-04T16:49:34.636Z,100479.47
2023-07-04T16:52:04.406Z,100476.88
2023-07-04T16:54:32.154Z,100482.41
2023-07-04T16:57:02.336Z,100463.88
2023-07-04T16:59:30.810Z,100468.53
2023-07-04T17:02:00.768Z,100461.66
2023-07-04T17:04:28.822Z,100466.78
2023-07-04T17:06:56.570Z,100461.53
2023-07-04T17:09:25.775Z,100459.53
2023-07-04T17:11:53.522Z,100459.53
2023-07-04T17:14:21.242Z,100456.03
2023-07-04T17:16:48.964Z,100456.53
2023-07-04T17:19:16.696Z,100450.16
2023-07-04T17:21:44.489Z,100459.75
2023-07-04T17:24:12.205Z,100454.66
2023-07-04T17:26:41.300Z,100441.19
2023-07-04T17:29:09.355Z,100453.09
2023-07-04T17:31:37.154Z,100466.25
2023-07-04T17:34:05.131Z,100452.41
2023-07-04T17:36:33.917Z,100447.66
2023-07-04T17:39:02.098Z,100461.81
2023-07-04T17:41:30.422Z,100451.53
2023-07-04T17:44:00.095Z,100448.06
2023-07-04T17:46:28.694Z,100452.66
2023-07-04T17:48:56.587Z,100455.50
2023-07-04T17:51:26.593Z,100458.72
2023-07-04T17:53:54.412Z,100462.44
2023-07-04T17:56:25.300Z,100458.06
2023-07-04T17:58:53.269Z,100443.44
2023-07-04T18:01:25.693Z,100448.31
2023-07-04T18:03:55.101Z,100450.84
2023-07-04T18:06:23.589Z,100451.00
2023-07-04T18:08:51.803Z,100441.09
2023-07-04T18:11:22.527Z,100449.16
2023-07-04T18:13:51.366Z,100444.28
2023-07-04T18:16:19.743Z,100441.59
2023-07-04T18:18:49.536Z,100445.31
2023-07-04T18:21:19.264Z,100436.06
2023-07-04T18:23:48.352Z,100438.41
2023-07-04T18:26:16.139Z,100432.72
2023-07-04T18:28:46.860Z,100432.31
2023-07-04T18:31:17.261Z,100425.41
2023-07-04T18:33:45.183Z,100421.88
2023-07-04T18:36:16.204Z,100428.91
2023-07-04T18:38:44.687Z,100416.63
2023-07-04T18:41:12.664Z,100411.69
2023-07-04T18:43:40.767Z,100404.28
2023-07-04T18:46:09.400Z,100413.94
2023-07-04T18:48:37.668Z,100406.53
2023-07-04T18:51:10.940Z,100406.59
2023-07-04T18:53:40.506Z,100397.31
2023-07-04T18:56:08.660Z,100390.28
2023-07-04T18:58:36.652Z,100400.09
2023-07-04T19:01:11.835Z,100394.72
2023-07-04T19:03:39.752Z,100397.19
2023-07-04T19:06:07.641Z,100396.66
2023-07-04T19:08:35.793Z,100395.28
2023-07-04T19:11:05.069Z,100383.50
2023-07-04T19:13:33.396Z,100389.28
2023-07-04T19:16:02.189Z,100385.47
2023-07-04T19:18:31.161Z,100392.06
2023-07-04T19:21:00.673Z,100385.34
2023-07-04T19:23:29.432Z,100369.66
2023-07-04T19:25:57.730Z,100360.72
2023-07-04T19:28:27.662Z,100344.75
2023-07-04T19:30:59.829Z,100358.72
2023-07-04T19:33:30.431Z,100365.06
2023-07-04T19:35:58.687Z,100359.41
2023-07-04T19:38:26.414Z,100365.44
2023-07-04T19:40:57.853Z,100364.84
